CheckWX is a tool to help pilots better visualize weather data.  It is not intended as a substitute for an official pre-flight weather briefing.

23:18:19 UTC

KORH METAR
Worcester Regional Airport
Worcester, Massachusetts, USA
Current

24 mins ago

KORH 232254Z COR 23004KT 10SM CLR 06/M08 A3003 RMK AO2 SLP179 T00611083 $
Observed
Feb-23 @ 22:54 UTC
Wind
  • 230° at 4 KTS
Visibility
10 SM
Flight Rules
VFR
Cloud Levels
  • Clear skies
Temperature
C / 43°F
Dewpoint
-8°C / 18°F
Humidity
36%
Altimeter
30.03" Hg
Pressure
1016.92 hPa
Previous

1 hour ago

KORH 232154Z 23009KT 10SM CLR 08/M08 A3003 RMK AO2 SLP176 T00831078 $
Observed
Feb-23 @ 21:54 UTC
Wind
  • 230° at 9 KTS
Visibility
10 SM
Flight Rules
VFR
Cloud Levels
  • Clear skies
Temperature
C / 46°F
Dewpoint
-8°C / 18°F
Humidity
32%
Altimeter
30.03" Hg
Pressure
1016.92 hPa
Previous

2 hours ago

KORH 232054Z 23013KT 10SM CLR 09/M07 A3003 RMK AO2 SLP178 T00891072 56011 $
Observed
Feb-23 @ 20:54 UTC
Wind
  • 230° at 13 KTS
Visibility
10 SM
Flight Rules
VFR
Cloud Levels
  • Clear skies
Temperature
C / 48°F
Dewpoint
-7°C / 19°F
Humidity
32%
Altimeter
30.03" Hg
Pressure
1016.92 hPa